createdAt,value
2022-09-09T00:01:25.632Z,97.27
2022-09-09T00:04:00.214Z,97.49
2022-09-09T00:06:36.330Z,97.94
2022-09-09T00:09:07.841Z,97.29
2022-09-09T00:11:47.568Z,98.22
2022-09-09T00:14:23.533Z,97.80
2022-09-09T00:16:56.530Z,97.44
2022-09-09T00:19:47.198Z,98.08
2022-09-09T00:22:22.933Z,97.33
2022-09-09T00:24:54.843Z,97.31
2022-09-09T00:27:48.571Z,98.62
2022-09-09T00:30:20.707Z,97.24
2022-09-09T00:32:48.799Z,96.71
2022-09-09T00:35:24.740Z,97.04
2022-09-09T00:37:54.372Z,96.81
2022-09-09T00:40:34.134Z,98.14
2022-09-09T00:43:26.722Z,98.44
2022-09-09T00:46:51.874Z,98.65
2022-09-09T00:49:40.026Z,96.35
2022-09-09T00:52:19.302Z,97.72
2022-09-09T00:54:52.291Z,96.17
2022-09-09T00:57:33.660Z,97.76
2022-09-09T01:00:25.938Z,98.18
2022-09-09T01:03:04.359Z,95.90
2022-09-09T01:05:33.599Z,96.16
2022-09-09T01:08:04.135Z,96.09
2022-09-09T01:10:42.560Z,96.52
2022-09-09T01:13:24.706Z,96.79
2022-09-09T01:15:56.328Z,94.60
2022-09-09T01:18:32.015Z,94.77
2022-09-09T01:21:24.711Z,96.16
2022-09-09T01:24:14.395Z,95.53
2022-09-09T01:26:43.643Z,93.30
2022-09-09T01:29:14.324Z,93.29
2022-09-09T01:31:42.584Z,93.33
2022-09-09T01:34:13.641Z,94.12
2022-09-09T01:36:55.222Z,94.74
2022-09-09T01:39:22.317Z,93.07
2022-09-09T01:41:48.824Z,93.03
2022-09-09T01:44:15.696Z,93.28
2022-09-09T01:46:42.080Z,93.16
2022-09-09T01:49:09.864Z,93.14
2022-09-09T01:51:38.789Z,93.31
2022-09-09T01:54:06.034Z,93.19
2022-09-09T01:57:01.741Z,93.58
2022-09-09T01:59:37.378Z,93.86
2022-09-09T02:02:16.635Z,94.90
2022-09-09T02:04:46.611Z,95.02
2022-09-09T02:07:35.701Z,95.49
2022-09-09T02:10:11.322Z,95.80
2022-09-09T02:12:42.603Z,95.41
2022-09-09T02:15:36.536Z,95.25
2022-09-09T02:18:09.225Z,95.33
2022-09-09T02:20:39.199Z,94.42
2022-09-09T02:23:09.539Z,94.13
2022-09-09T02:25:38.146Z,94.00
2022-09-09T02:28:08.799Z,93.74
2022-09-09T02:30:37.345Z,94.22
2022-09-09T02:33:08.375Z,95.05
2022-09-09T02:35:38.542Z,94.66
2022-09-09T02:38:07.149Z,95.16
2022-09-09T02:40:33.666Z,94.04
2022-09-09T02:43:01.084Z,94.32
2022-09-09T02:45:37.426Z,96.27
2022-09-09T02:48:10.311Z,95.57
2022-09-09T02:50:49.019Z,96.28
2022-09-09T02:53:23.845Z,96.07
2022-09-09T02:56:07.187Z,96.42
2022-09-09T02:58:34.358Z,94.87
2022-09-09T03:01:03.794Z,95.06
2022-09-09T03:03:31.266Z,94.72
2022-09-09T03:05:58.015Z,95.20
2022-09-09T03:08:24.543Z,94.86
2022-09-09T03:10:50.929Z,95.01
2022-09-09T03:13:20.223Z,95.16
2022-09-09T03:15:46.587Z,95.17
2022-09-09T03:18:12.991Z,95.27
2022-09-09T03:20:39.383Z,95.19
2022-09-09T03:23:05.950Z,96.31
2022-09-09T03:25:32.973Z,96.00
2022-09-09T03:27:59.376Z,96.36
2022-09-09T03:30:27.975Z,96.30
2022-09-09T03:32:54.639Z,96.09
2022-09-09T03:35:21.094Z,96.22
2022-09-09T03:37:47.932Z,95.87
2022-09-09T03:40:15.004Z,96.26
2022-09-09T03:42:41.500Z,95.87
2022-09-09T03:45:10.313Z,95.68
2022-09-09T03:47:37.064Z,95.31
2022-09-09T03:50:05.208Z,95.51
2022-09-09T03:52:31.724Z,95.55
2022-09-09T03:54:58.318Z,95.63
2022-09-09T03:57:24.813Z,95.14
2022-09-09T03:59:51.151Z,95.29
2022-09-09T04:02:17.662Z,94.85
2022-09-09T04:04:44.114Z,95.59
2022-09-09T04:07:10.924Z,95.45
2022-09-09T04:09:37.355Z,95.25
2022-09-09T04:12:03.907Z,95.95
2022-09-09T04:14:30.286Z,96.25
2022-09-09T04:16:59.190Z,96.05
2022-09-09T04:19:25.834Z,96.49
2022-09-09T04:21:52.619Z,96.18
2022-09-09T04:24:19.823Z,97.00
2022-09-09T04:26:46.467Z,97.20
2022-09-09T04:29:13.010Z,97.29
2022-09-09T04:31:42.882Z,97.59
2022-09-09T04:34:12.391Z,97.89
2022-09-09T04:36:40.170Z,97.78
2022-09-09T04:39:07.038Z,98.46
2022-09-09T04:41:33.502Z,98.45
2022-09-09T04:44:01.722Z,98.75
2022-09-09T04:46:28.194Z,98.79
2022-09-09T04:48:54.753Z,98.65
2022-09-09T04:51:21.253Z,98.86
2022-09-09T04:53:48.562Z,99.02
2022-09-09T04:56:16.996Z,99.67
2022-09-09T04:58:43.997Z,98.85
2022-09-09T05:01:16.969Z,99.92
2022-09-09T05:03:43.449Z,99.24
2022-09-09T05:06:12.072Z,99.72
2022-09-09T05:08:39.423Z,99.36
2022-09-09T05:11:20.990Z,100.00
2022-09-09T05:13:48.048Z,98.86
2022-09-09T05:16:15.288Z,98.48
2022-09-09T05:18:43.678Z,98.46
2022-09-09T05:21:11.361Z,98.00
2022-09-09T05:23:38.539Z,98.33
2022-09-09T05:26:06.221Z,97.83
2022-09-09T05:28:36.351Z,98.07
2022-09-09T05:31:09.087Z,98.96
2022-09-09T05:33:41.563Z,97.41
2022-09-09T05:36:17.139Z,97.62
2022-09-09T05:38:44.917Z,97.45
2022-09-09T05:41:18.313Z,97.86
2022-09-09T05:43:46.541Z,97.65
2022-09-09T05:46:15.733Z,98.03
2022-09-09T05:48:46.897Z,98.16
2022-09-09T05:51:20.655Z,98.52
2022-09-09T05:53:47.984Z,98.34
2022-09-09T05:56:30.644Z,99.76
2022-09-09T05:59:02.563Z,99.70
2022-09-09T06:01:36.798Z,100.00
2022-09-09T06:04:05.135Z,100.00
2022-09-09T06:06:37.944Z,100.00
2022-09-09T06:09:12.456Z,100.00
2022-09-09T06:11:40.917Z,100.00
2022-09-09T06:14:08.554Z,100.00
2022-09-09T06:16:36.210Z,100.00
2022-09-09T06:19:06.481Z,100.00
2022-09-09T06:21:37.346Z,100.00
2022-09-09T06:24:04.986Z,100.00
2022-09-09T06:26:34.432Z,100.00
2022-09-09T06:29:03.637Z,99.89
2022-09-09T06:31:32.694Z,99.33
2022-09-09T06:34:00.343Z,98.95
2022-09-09T06:36:32.569Z,98.91
2022-09-09T06:39:00.589Z,98.71
2022-09-09T06:41:32.983Z,98.59
2022-09-09T06:44:00.132Z,98.50
2022-09-09T06:46:34.533Z,99.17
2022-09-09T06:49:03.844Z,98.80
2022-09-09T06:51:36.384Z,99.98
2022-09-09T06:54:05.691Z,100.00
2022-09-09T06:56:39.311Z,100.00
2022-09-09T06:59:10.215Z,100.00
2022-09-09T07:01:42.172Z,99.11
2022-09-09T07:04:12.297Z,98.36
2022-09-09T07:06:44.324Z,98.37
2022-09-09T07:09:14.042Z,97.43
2022-09-09T07:11:44.565Z,97.67
2022-09-09T07:14:15.099Z,97.43
2022-09-09T07:16:43.142Z,97.13
2022-09-09T07:19:12.587Z,96.78
2022-09-09T07:21:43.325Z,96.14
2022-09-09T07:24:14.880Z,96.39
2022-09-09T07:26:44.107Z,95.30
2022-09-09T07:29:18.498Z,95.76
2022-09-09T07:31:47.049Z,94.90
2022-09-09T07:34:13.603Z,95.99
2022-09-09T07:36:43.018Z,95.77
2022-09-09T07:39:14.180Z,95.85
2022-09-09T07:41:48.854Z,96.43
2022-09-09T07:44:18.215Z,95.24
2022-09-09T07:46:46.366Z,95.31
2022-09-09T07:49:13.508Z,95.77
2022-09-09T07:51:42.339Z,95.63
2022-09-09T07:54:12.059Z,95.53
2022-09-09T07:56:40.407Z,93.80
2022-09-09T07:59:07.896Z,91.27
2022-09-09T08:01:40.086Z,92.78
2022-09-09T08:04:18.251Z,93.24
2022-09-09T08:06:51.568Z,91.64
2022-09-09T08:09:18.287Z,90.72
2022-09-09T08:11:45.276Z,90.27
2022-09-09T08:14:12.803Z,89.67
2022-09-09T08:16:45.105Z,89.49
2022-09-09T08:19:11.760Z,87.93
2022-09-09T08:21:41.047Z,88.27
2022-09-09T08:24:08.868Z,87.14
2022-09-09T08:26:38.250Z,86.99
2022-09-09T08:29:07.676Z,87.17
2022-09-09T08:31:38.167Z,86.63
2022-09-09T08:34:05.924Z,86.00
2022-09-09T08:36:35.936Z,86.09
2022-09-09T08:39:03.177Z,86.05
2022-09-09T08:42:01.370Z,84.14
2022-09-09T08:44:31.889Z,84.42
2022-09-09T08:47:24.709Z,82.29
2022-09-09T08:50:20.791Z,81.09
2022-09-09T08:52:56.479Z,80.46
2022-09-09T08:55:28.943Z,80.73
2022-09-09T08:57:58.740Z,80.15
2022-09-09T09:00:36.371Z,80.10
2022-09-09T09:03:28.680Z,79.42
2022-09-09T09:06:10.413Z,80.20
2022-09-09T09:08:58.648Z,78.82
2022-09-09T09:11:25.223Z,76.22
2022-09-09T09:13:58.021Z,75.77
2022-09-09T09:17:02.477Z,75.23
2022-09-09T09:19:31.741Z,74.18
2022-09-09T09:22:00.829Z,73.89
2022-09-09T09:24:39.920Z,74.97
2022-09-09T09:27:21.912Z,74.03
2022-09-09T09:30:21.061Z,72.70
2022-09-09T09:32:41.944Z,71.39
2022-09-09T09:35:13.555Z,71.96
2022-09-09T09:40:28.571Z,71.35
2022-09-09T09:43:08.774Z,68.95
2022-09-09T09:46:00.981Z,69.20
2022-09-09T09:48:35.824Z,68.54
2022-09-09T09:51:11.466Z,68.08
2022-09-09T09:53:39.813Z,68.39
2022-09-09T09:56:09.096Z,68.79
2022-09-09T09:58:47.467Z,65.57
2022-09-09T10:01:25.774Z,63.76
2022-09-09T10:03:54.770Z,61.15
2022-09-09T10:06:35.911Z,63.53
2022-09-09T10:09:05.236Z,62.07
2022-09-09T10:11:39.396Z,61.91
2022-09-09T10:14:20.957Z,62.92
2022-09-09T10:17:28.105Z,62.66
2022-09-09T10:20:36.284Z,62.71
2022-09-09T10:23:37.826Z,61.26
2022-09-09T10:26:38.365Z,60.43
2022-09-09T10:29:26.030Z,59.41
2022-09-09T10:32:07.494Z,59.50
2022-09-09T10:34:53.180Z,60.25
2022-09-09T10:37:43.890Z,58.20
2022-09-09T10:40:43.191Z,56.33
2022-09-09T10:43:27.625Z,55.92
2022-09-09T10:46:03.584Z,54.17
2022-09-09T10:48:59.929Z,52.87
2022-09-09T10:52:04.888Z,52.95
2022-09-09T10:54:42.938Z,52.13
2022-09-09T10:57:26.356Z,51.24
2022-09-09T11:00:05.254Z,51.80
2022-09-09T11:02:36.886Z,52.18
2022-09-09T11:05:17.229Z,51.54
2022-09-09T11:08:00.178Z,51.29
2022-09-09T11:11:04.768Z,53.53
2022-09-09T11:13:46.818Z,51.79
2022-09-09T11:16:20.702Z,54.61
2022-09-09T11:18:48.317Z,52.95
2022-09-09T11:21:27.918Z,52.39
2022-09-09T11:24:03.343Z,53.00
2022-09-09T11:26:37.020Z,53.28
2022-09-09T11:29:51.420Z,52.40
2022-09-09T11:33:03.031Z,50.80
2022-09-09T11:35:39.438Z,50.85
2022-09-09T11:38:23.967Z,50.21
2022-09-09T11:41:03.602Z,50.42
2022-09-09T11:43:39.781Z,49.92
2022-09-09T11:46:06.707Z,49.24
2022-09-09T11:48:36.650Z,50.43
2022-09-09T11:51:26.785Z,50.30
2022-09-09T11:53:58.266Z,47.39
2022-09-09T11:56:28.288Z,49.20
2022-09-09T11:58:59.245Z,48.77
2022-09-09T12:01:42.574Z,49.51
2022-09-09T12:04:30.759Z,48.75
2022-09-09T12:07:01.780Z,48.91
2022-09-09T12:09:59.841Z,48.08
2022-09-09T12:12:32.792Z,46.54
2022-09-09T12:15:04.278Z,47.40
2022-09-09T12:17:34.267Z,46.75
2022-09-09T12:20:20.271Z,46.85
2022-09-09T12:22:52.635Z,49.31
2022-09-09T12:25:40.953Z,47.26
2022-09-09T12:28:18.844Z,47.77
2022-09-09T12:30:52.834Z,47.26
2022-09-09T12:33:20.266Z,46.71
2022-09-09T12:35:55.513Z,46.18
2022-09-09T12:38:34.930Z,47.42
2022-09-09T12:41:01.469Z,48.08
2022-09-09T12:43:29.598Z,47.52
2022-09-09T12:46:01.427Z,48.39
2022-09-09T12:48:46.688Z,49.50
2022-09-09T12:51:26.119Z,48.73
2022-09-09T12:53:53.106Z,49.63
2022-09-09T12:56:22.284Z,49.42
2022-09-09T12:58:52.548Z,49.11
2022-09-09T13:01:26.303Z,49.47
2022-09-09T13:03:53.935Z,55.29
2022-09-09T13:06:28.866Z,52.88
2022-09-09T13:09:01.015Z,52.69
2022-09-09T13:11:35.994Z,53.51
2022-09-09T13:14:03.258Z,54.49
2022-09-09T13:16:33.429Z,55.79
2022-09-09T13:19:08.137Z,56.91
2022-09-09T13:21:40.892Z,59.30
2022-09-09T13:24:32.067Z,59.51
2022-09-09T13:27:21.639Z,60.99
2022-09-09T13:29:58.048Z,62.35
2022-09-09T13:32:27.850Z,60.46
2022-09-09T13:35:02.495Z,59.76
2022-09-09T13:37:37.790Z,58.46
2022-09-09T13:40:07.196Z,57.75
2022-09-09T13:42:40.105Z,57.49
2022-09-09T13:45:07.138Z,56.65
2022-09-09T13:47:35.903Z,57.62
2022-09-09T13:50:34.952Z,57.69
2022-09-09T13:53:01.417Z,59.56
2022-09-09T13:55:29.696Z,60.71
2022-09-09T13:58:04.350Z,61.86
2022-09-09T14:00:33.056Z,62.29
2022-09-09T14:03:02.533Z,62.60
2022-09-09T14:05:30.855Z,63.99
2022-09-09T14:07:58.982Z,64.56
2022-09-09T14:10:25.321Z,66.16
2022-09-09T14:12:52.044Z,66.80
2022-09-09T14:15:18.679Z,67.41
2022-09-09T14:17:45.136Z,67.72
2022-09-09T14:20:13.102Z,68.42
2022-09-09T14:22:40.260Z,68.48
2022-09-09T14:25:07.607Z,68.12
2022-09-09T14:27:34.601Z,68.78
2022-09-09T14:30:01.828Z,69.38
2022-09-09T14:32:28.734Z,70.26
2022-09-09T14:34:55.142Z,70.94
2022-09-09T14:37:21.741Z,71.83
2022-09-09T14:39:48.566Z,72.56
2022-09-09T14:42:15.119Z,73.57
2022-09-09T14:44:41.701Z,74.86
2022-09-09T14:47:09.148Z,75.54
2022-09-09T14:49:36.205Z,76.34
2022-09-09T14:52:03.406Z,76.66
2022-09-09T14:54:30.084Z,77.13
2022-09-09T14:56:58.072Z,77.22
2022-09-09T14:59:24.634Z,77.15
2022-09-09T15:01:51.209Z,76.36
2022-09-09T15:04:17.878Z,76.28
2022-09-09T15:06:47.976Z,75.71
2022-09-09T15:09:14.554Z,74.45
2022-09-09T15:11:41.055Z,75.75
2022-09-09T15:14:09.398Z,75.47
2022-09-09T15:16:36.512Z,75.77
2022-09-09T15:19:03.845Z,76.13
2022-09-09T15:21:33.047Z,75.35
2022-09-09T15:24:00.222Z,74.62
2022-09-09T15:26:28.065Z,74.67
2022-09-09T15:28:55.728Z,74.40
2022-09-09T15:31:24.743Z,75.57
2022-09-09T15:34:02.029Z,75.97
2022-09-09T15:36:29.790Z,75.20
2022-09-09T15:38:56.975Z,75.58
2022-09-09T15:41:24.539Z,75.20
2022-09-09T15:43:53.028Z,74.88
2022-09-09T15:46:33.253Z,74.83
2022-09-09T15:49:22.913Z,74.75
2022-09-09T15:52:03.205Z,74.50
2022-09-09T15:54:33.034Z,75.60
2022-09-09T15:57:02.111Z,75.19
2022-09-09T15:59:30.696Z,74.88
2022-09-09T16:01:57.666Z,74.22
2022-09-09T16:04:25.598Z,75.14
2022-09-09T16:06:59.377Z,74.34
2022-09-09T16:09:27.085Z,73.17
2022-09-09T16:11:54.920Z,73.39
2022-09-09T16:14:21.966Z,72.86
2022-09-09T16:16:49.266Z,71.36
2022-09-09T16:19:16.840Z,70.91
2022-09-09T16:21:51.409Z,70.33
2022-09-09T16:24:20.311Z,67.23
2022-09-09T16:26:49.918Z,64.61
2022-09-09T16:29:20.655Z,63.23
2022-09-09T16:31:47.847Z,62.62
2022-09-09T16:34:15.779Z,63.13
2022-09-09T16:36:43.308Z,62.02
2022-09-09T16:39:12.342Z,63.72
2022-09-09T16:41:40.482Z,63.49
2022-09-09T16:44:09.372Z,63.55
2022-09-09T16:46:39.862Z,63.00
2022-09-09T16:49:08.610Z,63.49
2022-09-09T16:51:38.572Z,62.72
2022-09-09T16:54:09.625Z,62.40
2022-09-09T16:56:44.146Z,62.57
2022-09-09T16:59:16.727Z,63.69
2022-09-09T17:01:48.628Z,63.88
2022-09-09T17:04:21.343Z,64.34
2022-09-09T17:06:53.732Z,65.31
2022-09-09T17:09:21.220Z,65.24
2022-09-09T17:11:48.872Z,65.66
2022-09-09T17:14:18.427Z,66.69
2022-09-09T17:16:45.199Z,66.33
2022-09-09T17:19:12.499Z,67.31
2022-09-09T17:21:54.508Z,67.30
2022-09-09T17:24:27.462Z,68.40
2022-09-09T17:26:55.286Z,68.64
2022-09-09T17:29:22.189Z,69.20
2022-09-09T17:31:48.521Z,69.48
2022-09-09T17:34:15.249Z,70.59
2022-09-09T17:36:41.908Z,70.53
2022-09-09T17:39:08.344Z,71.17
2022-09-09T17:41:39.406Z,71.99
2022-09-09T17:46:41.842Z,72.90
2022-09-09T17:49:12.886Z,73.21
2022-09-09T17:51:41.591Z,73.64
2022-09-09T17:54:10.756Z,74.54
2022-09-09T17:56:38.665Z,74.55
2022-09-09T17:59:07.220Z,75.50
2022-09-09T18:01:36.336Z,76.21
2022-09-09T18:04:06.223Z,76.65
2022-09-09T18:06:39.188Z,77.40
2022-09-09T18:09:08.601Z,77.66
2022-09-09T18:11:43.058Z,78.46
2022-09-09T18:14:12.766Z,78.56
2022-09-09T18:16:40.766Z,79.15
2022-09-09T18:19:12.396Z,80.38
2022-09-09T18:21:39.191Z,81.11
2022-09-09T18:24:06.890Z,81.89
2022-09-09T18:26:35.231Z,82.57
2022-09-09T18:29:06.527Z,83.51
2022-09-09T18:31:34.253Z,83.74
2022-09-09T18:34:03.582Z,84.36
2022-09-09T18:36:38.983Z,84.57
2022-09-09T18:39:08.080Z,84.84
2022-09-09T18:41:37.232Z,85.31
2022-09-09T18:44:09.161Z,85.77
2022-09-09T18:46:37.627Z,85.29
2022-09-09T18:49:05.958Z,85.82
2022-09-09T18:51:37.170Z,86.25
2022-09-09T18:54:11.829Z,86.96
2022-09-09T18:56:38.924Z,86.76
2022-09-09T18:59:08.358Z,87.78
2022-09-09T19:01:35.712Z,87.30
2022-09-09T19:04:04.232Z,87.36
2022-09-09T19:06:32.553Z,88.05
2022-09-09T19:09:03.140Z,88.52
2022-09-09T19:11:30.487Z,88.44
2022-09-09T19:14:02.414Z,89.33
2022-09-09T19:16:31.526Z,89.16
2022-09-09T19:19:00.761Z,89.50
2022-09-09T19:21:30.226Z,89.42
2022-09-09T19:24:06.320Z,90.05
2022-09-09T19:26:40.680Z,89.21
2022-09-09T19:29:14.364Z,89.88
2022-09-09T19:31:55.156Z,89.08
2022-09-09T19:34:28.813Z,88.72
2022-09-09T19:36:55.441Z,89.22
2022-09-09T19:39:21.857Z,89.21
2022-09-09T19:41:49.101Z,89.19
2022-09-09T19:44:17.080Z,89.26
2022-09-09T19:46:46.567Z,89.51
2022-09-09T19:49:13.493Z,89.11
2022-09-09T19:51:40.032Z,89.40
2022-09-09T19:54:09.159Z,90.22
2022-09-09T19:56:37.849Z,90.49
2022-09-09T19:59:06.315Z,90.44
2022-09-09T20:01:40.394Z,90.72
2022-09-09T20:04:07.995Z,90.25
2022-09-09T20:06:40.499Z,91.04
2022-09-09T20:09:10.451Z,91.71
2022-09-09T20:11:38.454Z,91.79
2022-09-09T20:14:05.288Z,92.29
2022-09-09T20:16:31.956Z,92.75
2022-09-09T20:19:02.141Z,93.43
2022-09-09T20:21:31.866Z,92.30
2022-09-09T20:24:00.854Z,93.72
2022-09-09T20:26:30.367Z,93.98
2022-09-09T20:28:56.781Z,93.74
2022-09-09T20:31:26.449Z,94.13
2022-09-09T20:33:54.882Z,93.85
2022-09-09T20:36:25.186Z,93.72
2022-09-09T20:38:54.655Z,93.53
2022-09-09T20:41:22.740Z,93.58
2022-09-09T20:43:53.635Z,94.13
2022-09-09T20:46:22.900Z,94.70
2022-09-09T20:48:51.342Z,94.54
2022-09-09T20:51:20.270Z,94.37
2022-09-09T20:53:47.461Z,93.94
2022-09-09T20:56:16.892Z,93.74
2022-09-09T20:58:43.837Z,93.24
2022-09-09T21:01:15.241Z,93.49
2022-09-09T21:03:41.639Z,93.20
2022-09-09T21:06:08.686Z,93.19
2022-09-09T21:08:36.048Z,92.89
2022-09-09T21:11:03.609Z,92.98
2022-09-09T21:13:31.395Z,93.19
2022-09-09T21:15:58.562Z,92.75
2022-09-09T21:18:27.309Z,92.21
2022-09-09T21:20:54.264Z,93.29
2022-09-09T21:23:21.223Z,93.35
2022-09-09T21:25:48.075Z,93.33
2022-09-09T21:28:15.465Z,93.61
2022-09-09T21:30:44.225Z,92.72
2022-09-09T21:33:11.496Z,92.62
2022-09-09T21:35:39.520Z,92.85
2022-09-09T21:38:07.594Z,92.81
2022-09-09T21:40:37.917Z,93.81
2022-09-09T21:43:06.124Z,94.12
2022-09-09T21:45:35.803Z,93.97
2022-09-09T21:48:02.319Z,93.82
2022-09-09T21:50:29.339Z,94.22
2022-09-09T21:52:55.981Z,94.72
2022-09-09T21:55:22.651Z,94.71
2022-09-09T21:57:50.358Z,95.14
2022-09-09T22:00:18.128Z,95.05
2022-09-09T22:02:44.957Z,95.13
2022-09-09T22:05:12.883Z,95.00
2022-09-09T22:07:40.041Z,95.46
2022-09-09T22:10:07.654Z,95.94
2022-09-09T22:12:35.078Z,95.57
2022-09-09T22:15:01.853Z,95.56
2022-09-09T22:17:28.283Z,95.52
2022-09-09T22:19:54.772Z,95.76
2022-09-09T22:22:21.259Z,95.43
2022-09-09T22:24:47.596Z,95.62
2022-09-09T22:27:15.666Z,95.42
2022-09-09T22:29:42.412Z,95.68
2022-09-09T22:32:10.142Z,95.48
2022-09-09T22:34:37.772Z,94.90
2022-09-09T22:37:05.824Z,94.62
2022-09-09T22:39:32.597Z,94.61
2022-09-09T22:41:59.659Z,94.33
2022-09-09T22:44:26.899Z,94.35
2022-09-09T22:46:56.434Z,94.69
2022-09-09T22:49:23.600Z,94.92
2022-09-09T22:51:50.125Z,95.15
2022-09-09T22:54:21.631Z,95.20
2022-09-09T22:56:49.646Z,95.58
2022-09-09T22:59:16.163Z,94.95
2022-09-09T23:01:42.945Z,95.22
2022-09-09T23:04:09.670Z,95.28
2022-09-09T23:06:38.604Z,95.25
2022-09-09T23:09:05.397Z,95.28
2022-09-09T23:11:36.985Z,96.10
2022-09-09T23:14:06.543Z,95.82
2022-09-09T23:16:38.199Z,95.91
2022-09-09T23:19:09.989Z,95.88
2022-09-09T23:21:41.900Z,95.70
2022-09-09T23:24:11.515Z,95.90
2022-09-09T23:26:38.627Z,96.01
2022-09-09T23:29:05.222Z,96.18
2022-09-09T23:31:37.743Z,96.26
2022-09-09T23:34:04.798Z,96.05
2022-09-09T23:36:31.534Z,95.99
2022-09-09T23:38:59.974Z,96.43
2022-09-09T23:41:26.972Z,96.23
2022-09-09T23:43:54.055Z,96.21
2022-09-09T23:46:29.657Z,96.81
2022-09-09T23:48:58.401Z,96.13
2022-09-09T23:51:28.095Z,95.75
2022-09-09T23:53:56.837Z,95.44
2022-09-09T23:56:26.204Z,95.50
2022-09-09T23:58:53.196Z,95.26
